sensor_id;sensor_type;location;lat;lon;timestamp;P1;durP1;ratioP1;P2;durP2;ratioP2
21360;SDS011;10839;43.206;23.550;2022-11-14T05:04:49;42.30;;;20.30;;
21360;SDS011;10839;43.206;23.550;2022-11-14T05:10:44;40.63;;;19.47;;
21360;SDS011;10839;43.206;23.550;2022-11-14T05:16:29;42.63;;;20.27;;
21360;SDS011;10839;43.206;23.550;2022-11-14T05:31:22;33.45;;;15.93;;
21360;SDS011;10839;43.206;23.550;2022-11-14T05:34:15;39.50;;;18.27;;
21360;SDS011;10839;43.206;23.550;2022-11-14T05:37:02;41.17;;;18.92;;
21360;SDS011;10839;43.206;23.550;2022-11-14T05:42:38;34.88;;;18.33;;
21360;SDS011;10839;43.206;23.550;2022-11-14T05:45:25;35.55;;;18.67;;
21360;SDS011;10839;43.206;23.550;2022-11-14T05:48:10;31.75;;;17.20;;
21360;SDS011;10839;43.206;23.550;2022-11-14T06:39:42;26.33;;;16.17;;
21360;SDS011;10839;43.206;23.550;2022-11-14T06:42:27;25.77;;;14.05;;
21360;SDS011;10839;43.206;23.550;2022-11-14T06:47:56;23.13;;;15.02;;
21360;SDS011;10839;43.206;23.550;2022-11-14T06:50:39;25.27;;;14.43;;
21360;SDS011;10839;43.206;23.550;2022-11-14T06:53:25;24.30;;;15.38;;
21360;SDS011;10839;43.206;23.550;2022-11-14T06:56:12;23.13;;;14.77;;
21360;SDS011;10839;43.206;23.550;2022-11-14T06:58:59;20.38;;;14.23;;
21360;SDS011;10839;43.206;23.550;2022-11-14T07:01:44;23.55;;;14.88;;
21360;SDS011;10839;43.206;23.550;2022-11-14T07:04:28;19.25;;;14.15;;
21360;SDS011;10839;43.206;23.550;2022-11-14T07:07:13;19.75;;;12.98;;
21360;SDS011;10839;43.206;23.550;2022-11-14T07:09:58;19.00;;;12.60;;
21360;SDS011;10839;43.206;23.550;2022-11-14T07:12:42;18.92;;;13.30;;
21360;SDS011;10839;43.206;23.550;2022-11-14T07:15:27;19.98;;;13.20;;
21360;SDS011;10839;43.206;23.550;2022-11-14T07:18:12;19.35;;;13.32;;
21360;SDS011;10839;43.206;23.550;2022-11-14T07:21:00;21.85;;;13.05;;
21360;SDS011;10839;43.206;23.550;2022-11-14T07:23:47;19.52;;;12.68;;
21360;SDS011;10839;43.206;23.550;2022-11-14T07:26:32;18.58;;;12.77;;
21360;SDS011;10839;43.206;23.550;2022-11-14T07:29:17;20.38;;;13.35;;
21360;SDS011;10839;43.206;23.550;2022-11-14T07:32:01;21.02;;;12.70;;
21360;SDS011;10839;43.206;23.550;2022-11-14T07:34:47;19.70;;;13.65;;
21360;SDS011;10839;43.206;23.550;2022-11-14T07:37:32;19.98;;;12.98;;
21360;SDS011;10839;43.206;23.550;2022-11-14T07:40:17;21.40;;;13.23;;
21360;SDS011;10839;43.206;23.550;2022-11-14T07:43:02;20.80;;;13.23;;
21360;SDS011;10839;43.206;23.550;2022-11-14T07:45:47;19.50;;;13.23;;
21360;SDS011;10839;43.206;23.550;2022-11-14T07:48:31;24.23;;;13.02;;
21360;SDS011;10839;43.206;23.550;2022-11-14T07:51:17;18.90;;;12.35;;
21360;SDS011;10839;43.206;23.550;2022-11-14T07:53:52;19.40;;;13.25;;
21360;SDS011;10839;43.206;23.550;2022-11-14T07:56:37;19.88;;;12.20;;
21360;SDS011;10839;43.206;23.550;2022-11-14T07:59:21;19.38;;;12.68;;
21360;SDS011;10839;43.206;23.550;2022-11-14T08:02:09;19.88;;;11.75;;
21360;SDS011;10839;43.206;23.550;2022-11-14T08:04:57;15.93;;;11.52;;
21360;SDS011;10839;43.206;23.550;2022-11-14T08:07:41;17.20;;;11.73;;
21360;SDS011;10839;43.206;23.550;2022-11-14T08:10:26;16.40;;;11.88;;
21360;SDS011;10839;43.206;23.550;2022-11-14T08:13:11;20.52;;;13.43;;
21360;SDS011;10839;43.206;23.550;2022-11-14T08:15:56;18.27;;;12.73;;
21360;SDS011;10839;43.206;23.550;2022-11-14T08:18:40;19.85;;;13.15;;
21360;SDS011;10839;43.206;23.550;2022-11-14T08:21:25;21.05;;;13.07;;
21360;SDS011;10839;43.206;23.550;2022-11-14T08:24:09;18.27;;;13.25;;
21360;SDS011;10839;43.206;23.550;2022-11-14T08:26:54;18.50;;;13.25;;
21360;SDS011;10839;43.206;23.550;2022-11-14T08:29:38;20.20;;;13.02;;
21360;SDS011;10839;43.206;23.550;2022-11-14T08:32:23;20.55;;;13.70;;
21360;SDS011;10839;43.206;23.550;2022-11-14T08:35:08;21.40;;;13.80;;
21360;SDS011;10839;43.206;23.550;2022-11-14T08:37:52;21.05;;;13.57;;
21360;SDS011;10839;43.206;23.550;2022-11-14T08:40:37;20.75;;;11.77;;
21360;SDS011;10839;43.206;23.550;2022-11-14T08:43:21;18.50;;;11.93;;
21360;SDS011;10839;43.206;23.550;2022-11-14T08:46:06;17.33;;;11.80;;
21360;SDS011;10839;43.206;23.550;2022-11-14T08:48:51;16.05;;;11.02;;
21360;SDS011;10839;43.206;23.550;2022-11-14T08:51:35;17.35;;;11.57;;
21360;SDS011;10839;43.206;23.550;2022-11-14T08:54:20;17.92;;;11.13;;
21360;SDS011;10839;43.206;23.550;2022-11-14T08:57:05;14.88;;;11.00;;
21360;SDS011;10839;43.206;23.550;2022-11-14T08:59:49;14.07;;;9.93;;
21360;SDS011;10839;43.206;23.550;2022-11-14T09:02:34;17.02;;;11.43;;
21360;SDS011;10839;43.206;23.550;2022-11-14T09:05:18;14.80;;;11.15;;
21360;SDS011;10839;43.206;23.550;2022-11-14T09:08:03;20.13;;;11.55;;
21360;SDS011;10839;43.206;23.550;2022-11-14T09:10:47;18.75;;;11.32;;
21360;SDS011;10839;43.206;23.550;2022-11-14T09:13:32;15.73;;;10.77;;
21360;SDS011;10839;43.206;23.550;2022-11-14T09:16:17;16.42;;;11.80;;
21360;SDS011;10839;43.206;23.550;2022-11-14T09:19:02;19.65;;;12.60;;
21360;SDS011;10839;43.206;23.550;2022-11-14T09:21:46;20.08;;;13.07;;
21360;SDS011;10839;43.206;23.550;2022-11-14T09:24:31;22.98;;;14.77;;
21360;SDS011;10839;43.206;23.550;2022-11-14T09:27:16;42.33;;;27.35;;
21360;SDS011;10839;43.206;23.550;2022-11-14T09:30:00;51.13;;;29.95;;
21360;SDS011;10839;43.206;23.550;2022-11-14T09:32:45;40.70;;;23.33;;
21360;SDS011;10839;43.206;23.550;2022-11-14T09:35:29;33.10;;;20.80;;
21360;SDS011;10839;43.206;23.550;2022-11-14T09:38:15;27.38;;;17.88;;
21360;SDS011;10839;43.206;23.550;2022-11-14T09:44:27;32.85;;;22.10;;
21360;SDS011;10839;43.206;23.550;2022-11-14T09:47:33;21.40;;;14.65;;
21360;SDS011;10839;43.206;23.550;2022-11-14T09:50:27;24.08;;;16.02;;
21360;SDS011;10839;43.206;23.550;2022-11-14T09:53:26;20.80;;;14.80;;
21360;SDS011;10839;43.206;23.550;2022-11-14T09:56:26;20.75;;;14.35;;
21360;SDS011;10839;43.206;23.550;2022-11-14T09:59:12;28.58;;;17.48;;
21360;SDS011;10839;43.206;23.550;2022-11-14T10:02:03;26.25;;;17.40;;
21360;SDS011;10839;43.206;23.550;2022-11-14T10:05:12;27.88;;;18.40;;
21360;SDS011;10839;43.206;23.550;2022-11-14T10:08:34;25.30;;;16.20;;
21360;SDS011;10839;43.206;23.550;2022-11-14T10:11:49;23.25;;;15.75;;
21360;SDS011;10839;43.206;23.550;2022-11-14T10:20:33;30.50;;;19.80;;
21360;SDS011;10839;43.206;23.550;2022-11-14T10:23:24;38.35;;;25.08;;
21360;SDS011;10839;43.206;23.550;2022-11-14T10:26:32;34.25;;;21.77;;
21360;SDS011;10839;43.206;23.550;2022-11-14T10:35:43;25.25;;;16.05;;
21360;SDS011;10839;43.206;23.550;2022-11-14T10:41:21;25.25;;;15.57;;
21360;SDS011;10839;43.206;23.550;2022-11-14T10:44:12;23.38;;;15.48;;
21360;SDS011;10839;43.206;23.550;2022-11-14T10:47:05;25.92;;;16.80;;
21360;SDS011;10839;43.206;23.550;2022-11-14T10:49:57;23.08;;;15.18;;
21360;SDS011;10839;43.206;23.550;2022-11-14T10:52:48;26.15;;;15.70;;
21360;SDS011;10839;43.206;23.550;2022-11-14T10:55:39;28.55;;;16.70;;
21360;SDS011;10839;43.206;23.550;2022-11-14T10:58:24;25.50;;;15.73;;
21360;SDS011;10839;43.206;23.550;2022-11-14T11:07:21;28.90;;;17.15;;
21360;SDS011;10839;43.206;23.550;2022-11-14T11:10:27;30.58;;;16.88;;
21360;SDS011;10839;43.206;23.550;2022-11-14T11:16:21;24.85;;;15.95;;
21360;SDS011;10839;43.206;23.550;2022-11-14T11:19:17;30.65;;;18.05;;
21360;SDS011;10839;43.206;23.550;2022-11-14T11:22:21;36.85;;;18.63;;
21360;SDS011;10839;43.206;23.550;2022-11-14T11:25:27;31.75;;;19.35;;
21360;SDS011;10839;43.206;23.550;2022-11-14T11:28:15;35.00;;;19.27;;
21360;SDS011;10839;43.206;23.550;2022-11-14T11:31:03;33.35;;;20.52;;
21360;SDS011;10839;43.206;23.550;2022-11-14T11:33:50;24.77;;;15.18;;
21360;SDS011;10839;43.206;23.550;2022-11-14T11:36:37;26.45;;;15.43;;
21360;SDS011;10839;43.206;23.550;2022-11-14T11:39:31;26.40;;;15.52;;
21360;SDS011;10839;43.206;23.550;2022-11-14T11:42:43;30.80;;;16.77;;
21360;SDS011;10839;43.206;23.550;2022-11-14T11:51:01;29.42;;;16.45;;
21360;SDS011;10839;43.206;23.550;2022-11-14T11:56:33;26.58;;;15.15;;
21360;SDS011;10839;43.206;23.550;2022-11-14T12:05:09;34.22;;;17.38;;
21360;SDS011;10839;43.206;23.550;2022-11-14T12:08:00;33.17;;;18.08;;
21360;SDS011;10839;43.206;23.550;2022-11-14T12:10:47;31.52;;;16.88;;
21360;SDS011;10839;43.206;23.550;2022-11-14T12:31:45;35.30;;;17.33;;
21360;SDS011;10839;43.206;23.550;2022-11-14T12:34:41;33.10;;;18.10;;
21360;SDS011;10839;43.206;23.550;2022-11-14T12:37:31;38.42;;;18.05;;
21360;SDS011;10839;43.206;23.550;2022-11-14T12:43:23;34.58;;;18.13;;
21360;SDS011;10839;43.206;23.550;2022-11-14T12:48:40;34.22;;;18.70;;
21360;SDS011;10839;43.206;23.550;2022-11-14T12:55:02;34.53;;;16.90;;
21360;SDS011;10839;43.206;23.550;2022-11-14T13:07:13;36.90;;;18.85;;
21360;SDS011;10839;43.206;23.550;2022-11-14T13:10:29;38.78;;;18.98;;
21360;SDS011;10839;43.206;23.550;2022-11-14T13:13:19;36.30;;;19.10;;
21360;SDS011;10839;43.206;23.550;2022-11-14T13:16:28;33.22;;;17.75;;
21360;SDS011;10839;43.206;23.550;2022-11-14T13:19:34;35.13;;;17.77;;
21360;SDS011;10839;43.206;23.550;2022-11-14T13:22:46;37.55;;;18.60;;
21360;SDS011;10839;43.206;23.550;2022-11-14T13:25:31;36.17;;;17.17;;
21360;SDS011;10839;43.206;23.550;2022-11-14T13:31:19;46.28;;;22.40;;
21360;SDS011;10839;43.206;23.550;2022-11-14T13:52:41;35.80;;;16.80;;
21360;SDS011;10839;43.206;23.550;2022-11-14T13:58:46;35.20;;;16.65;;
21360;SDS011;10839;43.206;23.550;2022-11-14T14:11:02;31.45;;;15.55;;
21360;SDS011;10839;43.206;23.550;2022-11-14T14:17:18;33.70;;;17.00;;
21360;SDS011;10839;43.206;23.550;2022-11-14T14:26:24;35.95;;;17.30;;
21360;SDS011;10839;43.206;23.550;2022-11-14T14:32:22;29.42;;;14.52;;
21360;SDS011;10839;43.206;23.550;2022-11-14T14:38:09;33.03;;;16.52;;
21360;SDS011;10839;43.206;23.550;2022-11-14T14:40:56;33.50;;;16.08;;
21360;SDS011;10839;43.206;23.550;2022-11-14T14:43:41;34.45;;;16.70;;
21360;SDS011;10839;43.206;23.550;2022-11-14T14:46:34;38.08;;;17.98;;
21360;SDS011;10839;43.206;23.550;2022-11-14T14:49:27;36.83;;;16.23;;
21360;SDS011;10839;43.206;23.550;2022-11-14T14:52:33;34.03;;;15.77;;
21360;SDS011;10839;43.206;23.550;2022-11-14T14:55:21;32.63;;;15.95;;
21360;SDS011;10839;43.206;23.550;2022-11-14T14:58:13;28.70;;;15.70;;
21360;SDS011;10839;43.206;23.550;2022-11-14T15:04:02;35.50;;;15.73;;
21360;SDS011;10839;43.206;23.550;2022-11-14T15:06:50;68.70;;;32.88;;
21360;SDS011;10839;43.206;23.550;2022-11-14T15:09:35;45.08;;;22.02;;
21360;SDS011;10839;43.206;23.550;2022-11-14T15:12:20;63.20;;;29.02;;
21360;SDS011;10839;43.206;23.550;2022-11-14T15:15:14;74.13;;;32.70;;
21360;SDS011;10839;43.206;23.550;2022-11-14T15:18:01;34.35;;;16.45;;
21360;SDS011;10839;43.206;23.550;2022-11-14T15:26:55;56.80;;;21.83;;
21360;SDS011;10839;43.206;23.550;2022-11-14T15:29:46;46.13;;;19.80;;
21360;SDS011;10839;43.206;23.550;2022-11-14T15:32:33;32.75;;;15.85;;
21360;SDS011;10839;43.206;23.550;2022-11-14T15:41:09;39.60;;;18.00;;
21360;SDS011;10839;43.206;23.550;2022-11-14T15:44:01;37.42;;;17.33;;
21360;SDS011;10839;43.206;23.550;2022-11-14T15:46:46;52.97;;;21.08;;
21360;SDS011;10839;43.206;23.550;2022-11-14T15:49:32;48.90;;;20.80;;
21360;SDS011;10839;43.206;23.550;2022-11-14T15:52:29;40.65;;;17.73;;
21360;SDS011;10839;43.206;23.550;2022-11-14T15:55:18;40.45;;;16.60;;
21360;SDS011;10839;43.206;23.550;2022-11-14T15:58:09;36.88;;;15.90;;
21360;SDS011;10839;43.206;23.550;2022-11-14T16:00:54;37.35;;;16.27;;
21360;SDS011;10839;43.206;23.550;2022-11-14T16:03:42;39.35;;;17.67;;
21360;SDS011;10839;43.206;23.550;2022-11-14T16:06:31;97.30;;;43.10;;
21360;SDS011;10839;43.206;23.550;2022-11-14T16:09:17;75.50;;;34.97;;
21360;SDS011;10839;43.206;23.550;2022-11-14T16:12:04;54.58;;;25.70;;
21360;SDS011;10839;43.206;23.550;2022-11-14T16:14:49;53.13;;;25.33;;
21360;SDS011;10839;43.206;23.550;2022-11-14T16:17:43;43.92;;;21.88;;
21360;SDS011;10839;43.206;23.550;2022-11-14T16:20:29;47.17;;;19.90;;
21360;SDS011;10839;43.206;23.550;2022-11-14T16:23:17;39.83;;;18.00;;
21360;SDS011;10839;43.206;23.550;2022-11-14T16:26:01;39.22;;;17.58;;
21360;SDS011;10839;43.206;23.550;2022-11-14T16:28:46;44.83;;;19.48;;
21360;SDS011;10839;43.206;23.550;2022-11-14T16:31:30;35.60;;;16.45;;
21360;SDS011;10839;43.206;23.550;2022-11-14T16:34:17;39.88;;;18.92;;
21360;SDS011;10839;43.206;23.550;2022-11-14T16:37:03;39.45;;;18.80;;
21360;SDS011;10839;43.206;23.550;2022-11-14T16:39:48;38.67;;;18.25;;
21360;SDS011;10839;43.206;23.550;2022-11-14T16:42:32;42.90;;;19.27;;
21360;SDS011;10839;43.206;23.550;2022-11-14T16:45:17;40.13;;;18.27;;
21360;SDS011;10839;43.206;23.550;2022-11-14T16:48:04;38.33;;;17.50;;
21360;SDS011;10839;43.206;23.550;2022-11-14T16:50:49;43.88;;;19.58;;
21360;SDS011;10839;43.206;23.550;2022-11-14T16:53:34;47.05;;;20.13;;
21360;SDS011;10839;43.206;23.550;2022-11-14T16:56:18;52.30;;;21.38;;
21360;SDS011;10839;43.206;23.550;2022-11-14T16:59:03;73.75;;;31.80;;
21360;SDS011;10839;43.206;23.550;2022-11-14T17:01:48;55.65;;;25.98;;
21360;SDS011;10839;43.206;23.550;2022-11-14T17:04:32;53.67;;;24.63;;
21360;SDS011;10839;43.206;23.550;2022-11-14T17:07:17;43.33;;;20.27;;
21360;SDS011;10839;43.206;23.550;2022-11-14T17:10:02;47.85;;;21.98;;
21360;SDS011;10839;43.206;23.550;2022-11-14T17:12:47;51.20;;;23.05;;
21360;SDS011;10839;43.206;23.550;2022-11-14T17:15:32;48.10;;;20.98;;
21360;SDS011;10839;43.206;23.550;2022-11-14T17:18:16;46.60;;;20.25;;
21360;SDS011;10839;43.206;23.550;2022-11-14T17:21:04;42.70;;;20.70;;
21360;SDS011;10839;43.206;23.550;2022-11-14T17:23:54;46.03;;;20.40;;
21360;SDS011;10839;43.206;23.550;2022-11-14T17:26:40;48.33;;;22.80;;
21360;SDS011;10839;43.206;23.550;2022-11-14T17:29:25;53.47;;;24.27;;
21360;SDS011;10839;43.206;23.550;2022-11-14T17:32:10;50.42;;;20.77;;
21360;SDS011;10839;43.206;23.550;2022-11-14T17:34:54;48.00;;;22.35;;
21360;SDS011;10839;43.206;23.550;2022-11-14T17:37:39;53.20;;;23.52;;
21360;SDS011;10839;43.206;23.550;2022-11-14T17:40:23;49.88;;;22.20;;
21360;SDS011;10839;43.206;23.550;2022-11-14T17:43:08;47.45;;;21.80;;
21360;SDS011;10839;43.206;23.550;2022-11-14T17:45:54;45.38;;;20.38;;
21360;SDS011;10839;43.206;23.550;2022-11-14T17:48:39;45.70;;;20.90;;
21360;SDS011;10839;43.206;23.550;2022-11-14T17:51:24;42.67;;;20.38;;
21360;SDS011;10839;43.206;23.550;2022-11-14T17:54:09;45.60;;;21.38;;
21360;SDS011;10839;43.206;23.550;2022-11-14T17:56:53;47.92;;;21.98;;
21360;SDS011;10839;43.206;23.550;2022-11-14T17:59:38;52.55;;;25.88;;
21360;SDS011;10839;43.206;23.550;2022-11-14T18:02:24;43.15;;;18.45;;
21360;SDS011;10839;43.206;23.550;2022-11-14T18:05:08;35.67;;;16.90;;
21360;SDS011;10839;43.206;23.550;2022-11-14T18:07:53;35.33;;;16.80;;
21360;SDS011;10839;43.206;23.550;2022-11-14T18:10:27;36.22;;;19.33;;
21360;SDS011;10839;43.206;23.550;2022-11-14T18:13:15;44.13;;;20.58;;
21360;SDS011;10839;43.206;23.550;2022-11-14T18:16:00;43.13;;;19.67;;
21360;SDS011;10839;43.206;23.550;2022-11-14T18:18:37;47.47;;;22.52;;
21360;SDS011;10839;43.206;23.550;2022-11-14T18:21:23;43.30;;;21.33;;
21360;SDS011;10839;43.206;23.550;2022-11-14T18:24:10;46.03;;;21.90;;
21360;SDS011;10839;43.206;23.550;2022-11-14T18:26:57;63.75;;;28.08;;
21360;SDS011;10839;43.206;23.550;2022-11-14T18:29:42;43.90;;;21.42;;
21360;SDS011;10839;43.206;23.550;2022-11-14T18:32:27;51.97;;;25.45;;
21360;SDS011;10839;43.206;23.550;2022-11-14T18:35:12;45.80;;;22.15;;
21360;SDS011;10839;43.206;23.550;2022-11-14T18:37:56;33.35;;;16.27;;
21360;SDS011;10839;43.206;23.550;2022-11-14T18:40:41;39.15;;;19.40;;
21360;SDS011;10839;43.206;23.550;2022-11-14T18:43:28;39.58;;;19.90;;
21360;SDS011;10839;43.206;23.550;2022-11-14T18:46:16;38.20;;;17.98;;
21360;SDS011;10839;43.206;23.550;2022-11-14T18:49:03;34.80;;;16.25;;
21360;SDS011;10839;43.206;23.550;2022-11-14T18:51:48;35.53;;;17.17;;
21360;SDS011;10839;43.206;23.550;2022-11-14T18:54:32;32.00;;;15.45;;
21360;SDS011;10839;43.206;23.550;2022-11-14T19:03:22;32.85;;;16.60;;
21360;SDS011;10839;43.206;23.550;2022-11-14T19:06:08;39.30;;;18.40;;
21360;SDS011;10839;43.206;23.550;2022-11-14T19:11:50;35.45;;;16.65;;
21360;SDS011;10839;43.206;23.550;2022-11-14T19:14:36;36.95;;;17.48;;
21360;SDS011;10839;43.206;23.550;2022-11-14T19:17:20;38.58;;;17.35;;
21360;SDS011;10839;43.206;23.550;2022-11-14T19:20:05;42.17;;;18.67;;
21360;SDS011;10839;43.206;23.550;2022-11-14T19:22:51;43.65;;;17.42;;
21360;SDS011;10839;43.206;23.550;2022-11-14T19:25:36;37.92;;;17.50;;
21360;SDS011;10839;43.206;23.550;2022-11-14T20:11:09;40.05;;;18.25;;
21360;SDS011;10839;43.206;23.550;2022-11-14T20:13:54;36.25;;;16.55;;
21360;SDS011;10839;43.206;23.550;2022-11-14T20:16:40;36.25;;;17.17;;
21360;SDS011;10839;43.206;23.550;2022-11-14T20:19:24;38.17;;;16.95;;
21360;SDS011;10839;43.206;23.550;2022-11-14T20:22:10;46.53;;;19.15;;
21360;SDS011;10839;43.206;23.550;2022-11-14T20:24:55;44.53;;;18.27;;
21360;SDS011;10839;43.206;23.550;2022-11-14T20:27:39;47.08;;;19.42;;
21360;SDS011;10839;43.206;23.550;2022-11-14T20:30:24;48.13;;;18.55;;
21360;SDS011;10839;43.206;23.550;2022-11-14T20:33:09;41.05;;;17.33;;
21360;SDS011;10839;43.206;23.550;2022-11-14T20:35:53;44.33;;;18.08;;
21360;SDS011;10839;43.206;23.550;2022-11-14T20:38:34;34.03;;;15.38;;
21360;SDS011;10839;43.206;23.550;2022-11-14T20:41:20;45.35;;;19.70;;
21360;SDS011;10839;43.206;23.550;2022-11-14T20:43:53;45.95;;;18.77;;
21360;SDS011;10839;43.206;23.550;2022-11-14T20:46:46;45.55;;;18.58;;
21360;SDS011;10839;43.206;23.550;2022-11-14T20:49:31;39.42;;;17.52;;
21360;SDS011;10839;43.206;23.550;2022-11-14T20:52:16;38.95;;;17.63;;
21360;SDS011;10839;43.206;23.550;2022-11-14T20:55:01;37.88;;;16.33;;
21360;SDS011;10839;43.206;23.550;2022-11-14T20:57:49;37.20;;;15.52;;
21360;SDS011;10839;43.206;23.550;2022-11-14T21:00:35;36.95;;;15.27;;
21360;SDS011;10839;43.206;23.550;2022-11-14T21:03:20;32.08;;;14.65;;
21360;SDS011;10839;43.206;23.550;2022-11-14T21:06:05;38.38;;;15.65;;
21360;SDS011;10839;43.206;23.550;2022-11-14T21:08:51;35.08;;;15.77;;
21360;SDS011;10839;43.206;23.550;2022-11-14T21:11:35;33.78;;;14.98;;
21360;SDS011;10839;43.206;23.550;2022-11-14T21:14:20;33.33;;;14.57;;
21360;SDS011;10839;43.206;23.550;2022-11-14T21:17:05;31.63;;;13.80;;
21360;SDS011;10839;43.206;23.550;2022-11-14T21:19:49;36.60;;;15.77;;
21360;SDS011;10839;43.206;23.550;2022-11-14T21:22:34;36.70;;;16.30;;
21360;SDS011;10839;43.206;23.550;2022-11-14T21:25:19;41.40;;;17.40;;
21360;SDS011;10839;43.206;23.550;2022-11-14T21:28:05;38.47;;;16.75;;
21360;SDS011;10839;43.206;23.550;2022-11-14T21:30:49;34.75;;;16.25;;
21360;SDS011;10839;43.206;23.550;2022-11-14T21:33:35;37.40;;;17.02;;
21360;SDS011;10839;43.206;23.550;2022-11-14T21:36:19;34.65;;;16.45;;
21360;SDS011;10839;43.206;23.550;2022-11-14T21:39:04;37.83;;;16.67;;
21360;SDS011;10839;43.206;23.550;2022-11-14T21:41:49;36.63;;;16.30;;
21360;SDS011;10839;43.206;23.550;2022-11-14T21:44:33;34.35;;;15.18;;
21360;SDS011;10839;43.206;23.550;2022-11-14T21:47:19;34.05;;;15.38;;
21360;SDS011;10839;43.206;23.550;2022-11-14T21:50:03;33.75;;;15.07;;
21360;SDS011;10839;43.206;23.550;2022-11-14T21:52:48;32.35;;;14.63;;
21360;SDS011;10839;43.206;23.550;2022-11-14T21:55:33;34.97;;;14.85;;
21360;SDS011;10839;43.206;23.550;2022-11-14T21:58:17;27.63;;;12.98;;
21360;SDS011;10839;43.206;23.550;2022-11-14T22:01:06;28.42;;;12.85;;
21360;SDS011;10839;43.206;23.550;2022-11-14T22:04:20;27.27;;;13.23;;
21360;SDS011;10839;43.206;23.550;2022-11-14T22:07:06;29.17;;;12.10;;
21360;SDS011;10839;43.206;23.550;2022-11-14T22:09:51;30.73;;;13.15;;
21360;SDS011;10839;43.206;23.550;2022-11-14T22:12:36;28.08;;;12.20;;
21360;SDS011;10839;43.206;23.550;2022-11-14T22:15:21;26.77;;;12.75;;
21360;SDS011;10839;43.206;23.550;2022-11-14T22:18:05;25.67;;;12.38;;
21360;SDS011;10839;43.206;23.550;2022-11-14T22:20:52;28.23;;;12.95;;
21360;SDS011;10839;43.206;23.550;2022-11-14T22:23:38;25.10;;;12.80;;
21360;SDS011;10839;43.206;23.550;2022-11-14T22:26:23;26.48;;;11.85;;
21360;SDS011;10839;43.206;23.550;2022-11-14T22:29:07;24.27;;;11.70;;
21360;SDS011;10839;43.206;23.550;2022-11-14T22:31:52;28.08;;;12.93;;
21360;SDS011;10839;43.206;23.550;2022-11-14T22:34:38;27.85;;;12.00;;
21360;SDS011;10839;43.206;23.550;2022-11-14T22:37:22;24.50;;;12.35;;
21360;SDS011;10839;43.206;23.550;2022-11-14T22:40:07;22.95;;;11.27;;
21360;SDS011;10839;43.206;23.550;2022-11-14T22:42:52;28.55;;;11.57;;
21360;SDS011;10839;43.206;23.550;2022-11-14T22:45:37;22.38;;;11.95;;
21360;SDS011;10839;43.206;23.550;2022-11-14T22:48:22;29.50;;;12.98;;
21360;SDS011;10839;43.206;23.550;2022-11-14T22:51:18;29.33;;;13.80;;
21360;SDS011;10839;43.206;23.550;2022-11-14T22:54:05;30.42;;;13.85;;
21360;SDS011;10839;43.206;23.550;2022-11-14T22:56:49;28.65;;;12.95;;
21360;SDS011;10839;43.206;23.550;2022-11-14T22:59:34;22.85;;;11.52;;
21360;SDS011;10839;43.206;23.550;2022-11-14T23:02:19;23.45;;;11.38;;
21360;SDS011;10839;43.206;23.550;2022-11-14T23:05:04;27.05;;;12.38;;
21360;SDS011;10839;43.206;23.550;2022-11-14T23:07:48;24.13;;;11.70;;
21360;SDS011;10839;43.206;23.550;2022-11-14T23:10:33;24.80;;;11.60;;
21360;SDS011;10839;43.206;23.550;2022-11-14T23:13:18;22.63;;;10.73;;
21360;SDS011;10839;43.206;23.550;2022-11-14T23:16:03;21.55;;;10.85;;
21360;SDS011;10839;43.206;23.550;2022-11-14T23:18:52;23.50;;;10.75;;
21360;SDS011;10839;43.206;23.550;2022-11-14T23:21:38;22.30;;;10.65;;
21360;SDS011;10839;43.206;23.550;2022-11-14T23:24:22;24.98;;;11.52;;
21360;SDS011;10839;43.206;23.550;2022-11-14T23:27:06;21.70;;;10.85;;
21360;SDS011;10839;43.206;23.550;2022-11-14T23:29:51;24.13;;;10.93;;
21360;SDS011;10839;43.206;23.550;2022-11-14T23:32:35;19.10;;;9.60;;
21360;SDS011;10839;43.206;23.550;2022-11-14T23:35:20;24.80;;;12.23;;
21360;SDS011;10839;43.206;23.550;2022-11-14T23:38:06;22.00;;;10.45;;
21360;SDS011;10839;43.206;23.550;2022-11-14T23:40:52;22.67;;;9.88;;
21360;SDS011;10839;43.206;23.550;2022-11-14T23:43:37;20.80;;;10.20;;
21360;SDS011;10839;43.206;23.550;2022-11-14T23:46:22;21.20;;;9.60;;
21360;SDS011;10839;43.206;23.550;2022-11-14T23:49:07;22.42;;;10.25;;
21360;SDS011;10839;43.206;23.550;2022-11-14T23:51:53;22.13;;;11.10;;
21360;SDS011;10839;43.206;23.550;2022-11-14T23:54:38;22.70;;;10.95;;
21360;SDS011;10839;43.206;23.550;2022-11-14T23:57:24;21.50;;;10.30;;
